sensor_id;sensor_type;location;lat;lon;timestamp;P1;durP1;ratioP1;P2;durP2;ratioP2
1879;SDS011;49285;49.002;8.390;2023-06-24T00:02:11;5.93;;;5.30;;
1879;SDS011;49285;49.002;8.390;2023-06-24T00:04:36;5.93;;;5.33;;
1879;SDS011;49285;49.002;8.390;2023-06-24T00:07:02;6.67;;;6.07;;
1879;SDS011;49285;49.002;8.390;2023-06-24T00:09:27;6.43;;;4.90;;
1879;SDS011;49285;49.002;8.390;2023-06-24T00:11:54;6.10;;;5.50;;
1879;SDS011;49285;49.002;8.390;2023-06-24T00:14:20;6.70;;;5.80;;
1879;SDS011;49285;49.002;8.390;2023-06-24T00:16:48;6.47;;;5.73;;
1879;SDS011;49285;49.002;8.390;2023-06-24T00:19:18;5.90;;;5.30;;
1879;SDS011;49285;49.002;8.390;2023-06-24T00:21:44;6.80;;;5.50;;
1879;SDS011;49285;49.002;8.390;2023-06-24T00:24:10;8.50;;;5.90;;
1879;SDS011;49285;49.002;8.390;2023-06-24T00:26:35;7.00;;;5.57;;
1879;SDS011;49285;49.002;8.390;2023-06-24T00:29:01;10.83;;;5.37;;
1879;SDS011;49285;49.002;8.390;2023-06-24T00:31:26;6.47;;;5.77;;
1879;SDS011;49285;49.002;8.390;2023-06-24T00:33:52;5.57;;;5.07;;
1879;SDS011;49285;49.002;8.390;2023-06-24T00:36:18;6.67;;;5.33;;
1879;SDS011;49285;49.002;8.390;2023-06-24T00:38:43;7.17;;;6.47;;
1879;SDS011;49285;49.002;8.390;2023-06-24T00:41:09;7.70;;;6.00;;
1879;SDS011;49285;49.002;8.390;2023-06-24T00:43:35;7.20;;;5.40;;
1879;SDS011;49285;49.002;8.390;2023-06-24T00:46:01;7.80;;;5.90;;
1879;SDS011;49285;49.002;8.390;2023-06-24T00:48:27;7.13;;;5.90;;
1879;SDS011;49285;49.002;8.390;2023-06-24T00:50:53;7.80;;;6.10;;
1879;SDS011;49285;49.002;8.390;2023-06-24T00:53:19;10.63;;;5.60;;
1879;SDS011;49285;49.002;8.390;2023-06-24T00:55:46;6.17;;;5.57;;
1879;SDS011;49285;49.002;8.390;2023-06-24T00:58:12;7.00;;;5.57;;
1879;SDS011;49285;49.002;8.390;2023-06-24T01:00:41;5.97;;;5.37;;
1879;SDS011;49285;49.002;8.390;2023-06-24T01:03:08;5.83;;;5.10;;
1879;SDS011;49285;49.002;8.390;2023-06-24T01:05:39;5.63;;;5.13;;
1879;SDS011;49285;49.002;8.390;2023-06-24T01:08:09;5.87;;;5.37;;
1879;SDS011;49285;49.002;8.390;2023-06-24T01:10:40;6.33;;;5.63;;
1879;SDS011;49285;49.002;8.390;2023-06-24T01:13:06;5.90;;;5.30;;
1879;SDS011;49285;49.002;8.390;2023-06-24T01:15:31;5.93;;;5.33;;
1879;SDS011;49285;49.002;8.390;2023-06-24T01:23:30;5.27;;;4.77;;
1879;SDS011;49285;49.002;8.390;2023-06-24T01:26:37;5.53;;;4.87;;
1879;SDS011;49285;49.002;8.390;2023-06-24T01:32:03;7.13;;;6.53;;
1879;SDS011;49285;49.002;8.390;2023-06-24T01:34:34;6.40;;;5.50;;
1879;SDS011;49285;49.002;8.390;2023-06-24T01:37:20;6.43;;;5.70;;
1879;SDS011;49285;49.002;8.390;2023-06-24T01:40:00;6.30;;;5.70;;
1879;SDS011;49285;49.002;8.390;2023-06-24T01:42:37;6.90;;;5.73;;
1879;SDS011;49285;49.002;8.390;2023-06-24T01:45:06;6.30;;;5.70;;
1879;SDS011;49285;49.002;8.390;2023-06-24T01:47:33;6.40;;;5.87;;
1879;SDS011;49285;49.002;8.390;2023-06-24T01:50:00;7.67;;;5.80;;
1879;SDS011;49285;49.002;8.390;2023-06-24T01:52:28;6.10;;;5.13;;
1879;SDS011;49285;49.002;8.390;2023-06-24T01:54:55;6.67;;;6.07;;
1879;SDS011;49285;49.002;8.390;2023-06-24T01:57:23;5.63;;;4.80;;
1879;SDS011;49285;49.002;8.390;2023-06-24T01:59:52;6.10;;;5.50;;
1879;SDS011;49285;49.002;8.390;2023-06-24T02:02:19;6.10;;;5.50;;
1879;SDS011;49285;49.002;8.390;2023-06-24T02:04:47;6.27;;;5.77;;
1879;SDS011;49285;49.002;8.390;2023-06-24T02:07:14;7.10;;;5.57;;
1879;SDS011;49285;49.002;8.390;2023-06-24T02:09:42;7.33;;;6.47;;
1879;SDS011;49285;49.002;8.390;2023-06-24T02:12:09;7.10;;;6.40;;
1879;SDS011;49285;49.002;8.390;2023-06-24T02:14:37;9.10;;;6.73;;
1879;SDS011;49285;49.002;8.390;2023-06-24T02:17:05;6.60;;;5.90;;
1879;SDS011;49285;49.002;8.390;2023-06-24T02:19:32;7.23;;;6.00;;
1879;SDS011;49285;49.002;8.390;2023-06-24T02:21:58;6.70;;;6.10;;
1879;SDS011;49285;49.002;8.390;2023-06-24T02:24:29;7.30;;;6.40;;
1879;SDS011;49285;49.002;8.390;2023-06-24T02:26:56;6.40;;;5.57;;
1879;SDS011;49285;49.002;8.390;2023-06-24T02:29:23;7.13;;;6.43;;
1879;SDS011;49285;49.002;8.390;2023-06-24T02:31:52;6.67;;;6.07;;
1879;SDS011;49285;49.002;8.390;2023-06-24T02:34:18;8.80;;;6.77;;
1879;SDS011;49285;49.002;8.390;2023-06-24T02:36:44;7.50;;;6.80;;
1879;SDS011;49285;49.002;8.390;2023-06-24T02:39:09;7.77;;;6.83;;
1879;SDS011;49285;49.002;8.390;2023-06-24T02:41:35;6.63;;;6.03;;
1879;SDS011;49285;49.002;8.390;2023-06-24T02:44:01;9.33;;;7.60;;
1879;SDS011;49285;49.002;8.390;2023-06-24T02:46:27;9.43;;;7.10;;
1879;SDS011;49285;49.002;8.390;2023-06-24T02:48:56;8.03;;;7.23;;
1879;SDS011;49285;49.002;8.390;2023-06-24T02:51:23;8.17;;;7.43;;
1879;SDS011;49285;49.002;8.390;2023-06-24T02:53:49;7.30;;;6.60;;
1879;SDS011;49285;49.002;8.390;2023-06-24T02:56:15;7.87;;;7.17;;
1879;SDS011;49285;49.002;8.390;2023-06-24T02:58:45;8.57;;;7.73;;
1879;SDS011;49285;49.002;8.390;2023-06-24T03:01:12;9.00;;;6.90;;
1879;SDS011;49285;49.002;8.390;2023-06-24T03:03:38;8.70;;;6.60;;
1879;SDS011;49285;49.002;8.390;2023-06-24T03:06:06;9.73;;;7.37;;
1879;SDS011;49285;49.002;8.390;2023-06-24T03:08:32;8.70;;;7.77;;
1879;SDS011;49285;49.002;8.390;2023-06-24T03:10:58;9.63;;;7.70;;
1879;SDS011;49285;49.002;8.390;2023-06-24T03:13:24;7.27;;;6.57;;
1879;SDS011;49285;49.002;8.390;2023-06-24T03:15:49;8.07;;;7.33;;
1879;SDS011;49285;49.002;8.390;2023-06-24T03:18:15;8.30;;;7.20;;
1879;SDS011;49285;49.002;8.390;2023-06-24T03:20:42;7.37;;;6.67;;
1879;SDS011;49285;49.002;8.390;2023-06-24T03:23:08;8.83;;;7.50;;
1879;SDS011;49285;49.002;8.390;2023-06-24T03:25:34;9.27;;;8.33;;
1879;SDS011;49285;49.002;8.390;2023-06-24T03:28:00;8.30;;;7.10;;
1879;SDS011;49285;49.002;8.390;2023-06-24T03:30:28;7.73;;;6.93;;
1879;SDS011;49285;49.002;8.390;2023-06-24T03:32:54;8.07;;;7.27;;
1879;SDS011;49285;49.002;8.390;2023-06-24T03:35:20;7.70;;;6.90;;
1879;SDS011;49285;49.002;8.390;2023-06-24T03:37:47;7.40;;;6.70;;
1879;SDS011;49285;49.002;8.390;2023-06-24T03:40:13;7.50;;;6.20;;
1879;SDS011;49285;49.002;8.390;2023-06-24T03:42:38;7.10;;;6.40;;
1879;SDS011;49285;49.002;8.390;2023-06-24T03:45:04;6.60;;;5.90;;
1879;SDS011;49285;49.002;8.390;2023-06-24T03:47:29;6.87;;;6.00;;
1879;SDS011;49285;49.002;8.390;2023-06-24T03:49:55;6.90;;;6.23;;
1879;SDS011;49285;49.002;8.390;2023-06-24T03:52:21;7.37;;;5.87;;
1879;SDS011;49285;49.002;8.390;2023-06-24T03:54:46;8.17;;;6.70;;
1879;SDS011;49285;49.002;8.390;2023-06-24T03:57:12;7.90;;;6.60;;
1879;SDS011;49285;49.002;8.390;2023-06-24T03:59:38;8.30;;;6.50;;
1879;SDS011;49285;49.002;8.390;2023-06-24T04:02:04;8.10;;;6.63;;
1879;SDS011;49285;49.002;8.390;2023-06-24T04:04:33;7.23;;;6.53;;
1879;SDS011;49285;49.002;8.390;2023-06-24T04:07:00;7.50;;;6.10;;
1879;SDS011;49285;49.002;8.390;2023-06-24T04:09:25;6.93;;;6.23;;
1879;SDS011;49285;49.002;8.390;2023-06-24T04:11:51;10.00;;;6.00;;
1879;SDS011;49285;49.002;8.390;2023-06-24T04:14:16;7.70;;;6.17;;
1879;SDS011;49285;49.002;8.390;2023-06-24T04:16:42;6.53;;;5.93;;
1879;SDS011;49285;49.002;8.390;2023-06-24T04:19:08;6.87;;;5.77;;
1879;SDS011;49285;49.002;8.390;2023-06-24T04:21:33;7.03;;;6.13;;
1879;SDS011;49285;49.002;8.390;2023-06-24T04:23:59;7.10;;;6.37;;
1879;SDS011;49285;49.002;8.390;2023-06-24T04:26:24;7.70;;;6.70;;
1879;SDS011;49285;49.002;8.390;2023-06-24T04:28:50;7.20;;;6.50;;
1879;SDS011;49285;49.002;8.390;2023-06-24T04:31:16;7.80;;;6.50;;
1879;SDS011;49285;49.002;8.390;2023-06-24T04:33:41;6.47;;;5.77;;
1879;SDS011;49285;49.002;8.390;2023-06-24T04:36:07;6.10;;;5.50;;
1879;SDS011;49285;49.002;8.390;2023-06-24T04:38:32;6.33;;;5.27;;
1879;SDS011;49285;49.002;8.390;2023-06-24T04:40:58;7.70;;;6.87;;
1879;SDS011;49285;49.002;8.390;2023-06-24T04:43:24;7.13;;;6.43;;
1879;SDS011;49285;49.002;8.390;2023-06-24T04:45:52;9.77;;;6.20;;
1879;SDS011;49285;49.002;8.390;2023-06-24T04:48:19;7.80;;;6.03;;
1879;SDS011;49285;49.002;8.390;2023-06-24T04:50:45;7.10;;;5.90;;
1879;SDS011;49285;49.002;8.390;2023-06-24T04:53:11;8.00;;;6.33;;
1879;SDS011;49285;49.002;8.390;2023-06-24T04:55:36;6.73;;;6.10;;
1879;SDS011;49285;49.002;8.390;2023-06-24T04:58:02;7.13;;;6.50;;
1879;SDS011;49285;49.002;8.390;2023-06-24T05:00:27;6.47;;;5.80;;
1879;SDS011;49285;49.002;8.390;2023-06-24T05:02:53;7.23;;;6.53;;
1879;SDS011;49285;49.002;8.390;2023-06-24T05:05:18;7.17;;;6.57;;
1879;SDS011;49285;49.002;8.390;2023-06-24T05:07:45;10.13;;;7.10;;
1879;SDS011;49285;49.002;8.390;2023-06-24T05:10:11;7.23;;;6.20;;
1879;SDS011;49285;49.002;8.390;2023-06-24T05:12:36;8.20;;;6.90;;
1879;SDS011;49285;49.002;8.390;2023-06-24T05:15:02;8.20;;;6.97;;
1879;SDS011;49285;49.002;8.390;2023-06-24T05:17:28;7.43;;;6.73;;
1879;SDS011;49285;49.002;8.390;2023-06-24T05:19:53;11.00;;;6.47;;
1879;SDS011;49285;49.002;8.390;2023-06-24T05:22:19;7.93;;;7.13;;
1879;SDS011;49285;49.002;8.390;2023-06-24T05:24:44;11.20;;;7.27;;
1879;SDS011;49285;49.002;8.390;2023-06-24T05:27:10;7.87;;;7.07;;
1879;SDS011;49285;49.002;8.390;2023-06-24T05:29:35;7.10;;;5.77;;
1879;SDS011;49285;49.002;8.390;2023-06-24T05:32:01;7.60;;;6.30;;
1879;SDS011;49285;49.002;8.390;2023-06-24T05:34:28;6.33;;;5.73;;
1879;SDS011;49285;49.002;8.390;2023-06-24T05:36:54;8.63;;;7.53;;
1879;SDS011;49285;49.002;8.390;2023-06-24T05:39:20;7.53;;;6.60;;
1879;SDS011;49285;49.002;8.390;2023-06-24T05:41:46;7.13;;;6.47;;
1879;SDS011;49285;49.002;8.390;2023-06-24T05:44:13;8.63;;;6.43;;
1879;SDS011;49285;49.002;8.390;2023-06-24T05:46:39;7.10;;;6.40;;
1879;SDS011;49285;49.002;8.390;2023-06-24T05:49:05;8.27;;;6.60;;
1879;SDS011;49285;49.002;8.390;2023-06-24T05:51:30;8.17;;;6.60;;
1879;SDS011;49285;49.002;8.390;2023-06-24T05:53:56;8.23;;;7.20;;
1879;SDS011;49285;49.002;8.390;2023-06-24T05:56:22;8.57;;;6.30;;
1879;SDS011;49285;49.002;8.390;2023-06-24T05:58:48;11.87;;;5.93;;
1879;SDS011;49285;49.002;8.390;2023-06-24T06:01:14;7.73;;;7.03;;
1879;SDS011;49285;49.002;8.390;2023-06-24T06:03:40;6.30;;;5.70;;
1879;SDS011;49285;49.002;8.390;2023-06-24T06:06:05;6.97;;;6.27;;
1879;SDS011;49285;49.002;8.390;2023-06-24T06:08:32;9.30;;;8.47;;
1879;SDS011;49285;49.002;8.390;2023-06-24T06:10:58;8.00;;;7.00;;
1879;SDS011;49285;49.002;8.390;2023-06-24T06:13:24;7.60;;;6.20;;
1879;SDS011;49285;49.002;8.390;2023-06-24T06:15:49;7.00;;;6.30;;
1879;SDS011;49285;49.002;8.390;2023-06-24T06:18:15;7.33;;;6.27;;
1879;SDS011;49285;49.002;8.390;2023-06-24T06:20:40;8.03;;;7.20;;
1879;SDS011;49285;49.002;8.390;2023-06-24T06:23:06;7.10;;;6.40;;
1879;SDS011;49285;49.002;8.390;2023-06-24T06:25:32;11.07;;;9.43;;
1879;SDS011;49285;49.002;8.390;2023-06-24T06:27:57;7.83;;;7.03;;
1879;SDS011;49285;49.002;8.390;2023-06-24T06:30:23;6.87;;;6.17;;
1879;SDS011;49285;49.002;8.390;2023-06-24T06:32:49;6.50;;;5.90;;
1879;SDS011;49285;49.002;8.390;2023-06-24T06:35:14;7.10;;;5.60;;
1879;SDS011;49285;49.002;8.390;2023-06-24T06:37:40;7.60;;;6.50;;
1879;SDS011;49285;49.002;8.390;2023-06-24T06:40:05;6.90;;;6.30;;
1879;SDS011;49285;49.002;8.390;2023-06-24T06:42:31;6.87;;;6.27;;
1879;SDS011;49285;49.002;8.390;2023-06-24T06:44:57;9.23;;;8.40;;
1879;SDS011;49285;49.002;8.390;2023-06-24T06:47:23;7.10;;;6.40;;
1879;SDS011;49285;49.002;8.390;2023-06-24T06:49:48;9.40;;;7.30;;
1879;SDS011;49285;49.002;8.390;2023-06-24T06:52:14;10.67;;;9.57;;
1879;SDS011;49285;49.002;8.390;2023-06-24T06:54:39;8.17;;;7.00;;
1879;SDS011;49285;49.002;8.390;2023-06-24T06:57:05;7.00;;;6.07;;
1879;SDS011;49285;49.002;8.390;2023-06-24T06:59:31;7.50;;;6.73;;
1879;SDS011;49285;49.002;8.390;2023-06-24T07:01:57;6.50;;;5.80;;
1879;SDS011;49285;49.002;8.390;2023-06-24T07:04:22;7.47;;;5.53;;
1879;SDS011;49285;49.002;8.390;2023-06-24T07:06:48;8.47;;;7.03;;
1879;SDS011;49285;49.002;8.390;2023-06-24T07:09:14;5.93;;;5.43;;
1879;SDS011;49285;49.002;8.390;2023-06-24T07:11:40;6.03;;;5.47;;
1879;SDS011;49285;49.002;8.390;2023-06-24T07:14:06;5.90;;;5.30;;
1879;SDS011;49285;49.002;8.390;2023-06-24T07:16:32;9.00;;;5.33;;
1879;SDS011;49285;49.002;8.390;2023-06-24T07:18:57;6.60;;;5.93;;
1879;SDS011;49285;49.002;8.390;2023-06-24T07:21:23;6.50;;;5.50;;
1879;SDS011;49285;49.002;8.390;2023-06-24T07:23:49;6.60;;;5.90;;
1879;SDS011;49285;49.002;8.390;2023-06-24T07:26:14;6.07;;;5.43;;
1879;SDS011;49285;49.002;8.390;2023-06-24T07:28:40;6.43;;;5.63;;
1879;SDS011;49285;49.002;8.390;2023-06-24T07:31:05;5.73;;;5.13;;
1879;SDS011;49285;49.002;8.390;2023-06-24T07:33:31;6.73;;;6.03;;
1879;SDS011;49285;49.002;8.390;2023-06-24T07:35:56;7.47;;;5.47;;
1879;SDS011;49285;49.002;8.390;2023-06-24T07:38:22;6.40;;;5.47;;
1879;SDS011;49285;49.002;8.390;2023-06-24T07:40:48;5.60;;;5.10;;
1879;SDS011;49285;49.002;8.390;2023-06-24T07:43:14;5.73;;;5.13;;
1879;SDS011;49285;49.002;8.390;2023-06-24T07:45:39;5.87;;;5.30;;
1879;SDS011;49285;49.002;8.390;2023-06-24T07:48:05;6.50;;;5.90;;
1879;SDS011;49285;49.002;8.390;2023-06-24T07:50:31;7.27;;;6.53;;
1879;SDS011;49285;49.002;8.390;2023-06-24T07:52:57;5.97;;;5.37;;
1879;SDS011;49285;49.002;8.390;2023-06-24T07:55:23;6.67;;;6.00;;
1879;SDS011;49285;49.002;8.390;2023-06-24T07:57:48;6.93;;;6.23;;
1879;SDS011;49285;49.002;8.390;2023-06-24T08:00:14;6.50;;;5.90;;
1879;SDS011;49285;49.002;8.390;2023-06-24T08:02:40;9.83;;;5.73;;
1879;SDS011;49285;49.002;8.390;2023-06-24T08:05:07;8.67;;;7.87;;
1879;SDS011;49285;49.002;8.390;2023-06-24T08:07:34;7.20;;;6.03;;
1879;SDS011;49285;49.002;8.390;2023-06-24T08:10:00;11.37;;;7.13;;
1879;SDS011;49285;49.002;8.390;2023-06-24T08:12:25;9.50;;;5.37;;
1879;SDS011;49285;49.002;8.390;2023-06-24T08:14:51;7.60;;;6.27;;
1879;SDS011;49285;49.002;8.390;2023-06-24T08:17:16;5.77;;;5.10;;
1879;SDS011;49285;49.002;8.390;2023-06-24T08:19:42;5.80;;;5.30;;
1879;SDS011;49285;49.002;8.390;2023-06-24T08:22:08;5.63;;;5.13;;
1879;SDS011;49285;49.002;8.390;2023-06-24T08:24:33;6.13;;;5.50;;
1879;SDS011;49285;49.002;8.390;2023-06-24T08:26:59;5.43;;;4.93;;
1879;SDS011;49285;49.002;8.390;2023-06-24T08:29:24;6.20;;;5.60;;
1879;SDS011;49285;49.002;8.390;2023-06-24T08:31:50;6.90;;;5.80;;
1879;SDS011;49285;49.002;8.390;2023-06-24T08:34:16;7.50;;;5.90;;
1879;SDS011;49285;49.002;8.390;2023-06-24T08:36:41;5.10;;;4.60;;
1879;SDS011;49285;49.002;8.390;2023-06-24T08:39:07;9.03;;;5.10;;
1879;SDS011;49285;49.002;8.390;2023-06-24T08:41:33;5.97;;;5.47;;
1879;SDS011;49285;49.002;8.390;2023-06-24T08:43:58;6.50;;;5.30;;
1879;SDS011;49285;49.002;8.390;2023-06-24T08:46:24;5.57;;;5.07;;
1879;SDS011;49285;49.002;8.390;2023-06-24T08:48:58;6.47;;;4.97;;
1879;SDS011;49285;49.002;8.390;2023-06-24T08:51:27;6.07;;;4.93;;
1879;SDS011;49285;49.002;8.390;2023-06-24T08:53:56;5.60;;;5.10;;
1879;SDS011;49285;49.002;8.390;2023-06-24T08:56:23;6.23;;;5.00;;
1879;SDS011;49285;49.002;8.390;2023-06-24T08:58:49;6.30;;;4.90;;
1879;SDS011;49285;49.002;8.390;2023-06-24T09:01:15;5.87;;;4.97;;
1879;SDS011;49285;49.002;8.390;2023-06-24T09:03:42;6.33;;;5.50;;
1879;SDS011;49285;49.002;8.390;2023-06-24T09:06:07;11.33;;;10.30;;
1879;SDS011;49285;49.002;8.390;2023-06-24T09:08:33;7.63;;;6.87;;
1879;SDS011;49285;49.002;8.390;2023-06-24T09:11:00;6.43;;;5.83;;
1879;SDS011;49285;49.002;8.390;2023-06-24T09:13:35;5.93;;;5.03;;
1879;SDS011;49285;49.002;8.390;2023-06-24T09:16:13;8.07;;;7.27;;
1879;SDS011;49285;49.002;8.390;2023-06-24T09:18:39;5.30;;;4.80;;
1879;SDS011;49285;49.002;8.390;2023-06-24T09:21:05;5.33;;;4.83;;
1879;SDS011;49285;49.002;8.390;2023-06-24T09:23:35;6.90;;;6.10;;
1879;SDS011;49285;49.002;8.390;2023-06-24T09:26:02;5.03;;;4.53;;
1879;SDS011;49285;49.002;8.390;2023-06-24T09:28:28;7.03;;;5.67;;
1879;SDS011;49285;49.002;8.390;2023-06-24T09:31:09;8.10;;;7.30;;
1879;SDS011;49285;49.002;8.390;2023-06-24T09:33:35;6.30;;;5.03;;
1879;SDS011;49285;49.002;8.390;2023-06-24T09:36:04;9.73;;;6.73;;
1879;SDS011;49285;49.002;8.390;2023-06-24T09:38:36;9.40;;;8.10;;
1879;SDS011;49285;49.002;8.390;2023-06-24T09:41:03;6.30;;;5.70;;
1879;SDS011;49285;49.002;8.390;2023-06-24T09:43:31;5.60;;;5.00;;
1879;SDS011;49285;49.002;8.390;2023-06-24T09:46:02;6.17;;;5.50;;
1879;SDS011;49285;49.002;8.390;2023-06-24T09:48:29;7.00;;;4.87;;
1879;SDS011;49285;49.002;8.390;2023-06-24T09:50:58;5.90;;;5.30;;
1879;SDS011;49285;49.002;8.390;2023-06-24T09:53:32;6.53;;;5.10;;
1879;SDS011;49285;49.002;8.390;2023-06-24T09:56:00;7.13;;;4.77;;
1879;SDS011;49285;49.002;8.390;2023-06-24T09:58:30;5.60;;;5.10;;
1879;SDS011;49285;49.002;8.390;2023-06-24T10:00:59;5.80;;;5.30;;
1879;SDS011;49285;49.002;8.390;2023-06-24T10:03:28;5.73;;;5.03;;
1879;SDS011;49285;49.002;8.390;2023-06-24T10:05:56;5.20;;;4.53;;
1879;SDS011;49285;49.002;8.390;2023-06-24T10:08:22;5.40;;;4.90;;
1879;SDS011;49285;49.002;8.390;2023-06-24T10:10:48;6.13;;;5.53;;
1879;SDS011;49285;49.002;8.390;2023-06-24T10:13:14;5.77;;;5.17;;
1879;SDS011;49285;49.002;8.390;2023-06-24T10:15:40;5.50;;;4.90;;
1879;SDS011;49285;49.002;8.390;2023-06-24T10:18:39;5.93;;;4.80;;
1879;SDS011;49285;49.002;8.390;2023-06-24T10:21:04;4.97;;;4.57;;
1879;SDS011;49285;49.002;8.390;2023-06-24T10:23:38;6.27;;;4.97;;
1879;SDS011;49285;49.002;8.390;2023-06-24T10:26:10;6.13;;;5.53;;
1879;SDS011;49285;49.002;8.390;2023-06-24T10:42:38;4.93;;;4.20;;
1879;SDS011;49285;49.002;8.390;2023-06-24T10:47:34;5.17;;;4.67;;
1879;SDS011;49285;49.002;8.390;2023-06-24T10:50:08;6.47;;;4.77;;
1879;SDS011;49285;49.002;8.390;2023-06-24T10:52:38;5.97;;;5.20;;
1879;SDS011;49285;49.002;8.390;2023-06-24T10:55:14;5.43;;;4.93;;
1879;SDS011;49285;49.002;8.390;2023-06-24T10:57:43;5.67;;;5.10;;
1879;SDS011;49285;49.002;8.390;2023-06-24T11:00:10;6.17;;;5.57;;
1879;SDS011;49285;49.002;8.390;2023-06-24T11:02:37;6.47;;;5.97;;
1879;SDS011;49285;49.002;8.390;2023-06-24T11:05:02;4.83;;;4.43;;
1879;SDS011;49285;49.002;8.390;2023-06-24T11:07:30;6.57;;;5.47;;
1879;SDS011;49285;49.002;8.390;2023-06-24T11:09:58;7.27;;;5.90;;
1879;SDS011;49285;49.002;8.390;2023-06-24T11:12:27;5.60;;;5.10;;
1879;SDS011;49285;49.002;8.390;2023-06-24T11:14:55;5.63;;;5.10;;
1879;SDS011;49285;49.002;8.390;2023-06-24T11:17:26;5.47;;;4.97;;
1879;SDS011;49285;49.002;8.390;2023-06-24T11:19:52;5.93;;;4.97;;
1879;SDS011;49285;49.002;8.390;2023-06-24T11:22:18;6.10;;;5.50;;
1879;SDS011;49285;49.002;8.390;2023-06-24T11:24:44;6.70;;;5.17;;
1879;SDS011;49285;49.002;8.390;2023-06-24T11:27:10;5.90;;;5.30;;
1879;SDS011;49285;49.002;8.390;2023-06-24T11:29:35;4.50;;;4.10;;
1879;SDS011;49285;49.002;8.390;2023-06-24T11:32:02;5.73;;;4.93;;
1879;SDS011;49285;49.002;8.390;2023-06-24T11:34:28;5.37;;;4.93;;
1879;SDS011;49285;49.002;8.390;2023-06-24T11:36:55;5.70;;;5.10;;
1879;SDS011;49285;49.002;8.390;2023-06-24T11:39:24;5.50;;;5.00;;
1879;SDS011;49285;49.002;8.390;2023-06-24T11:41:51;5.17;;;4.77;;
1879;SDS011;49285;49.002;8.390;2023-06-24T11:44:20;6.03;;;5.43;;
1879;SDS011;49285;49.002;8.390;2023-06-24T11:46:48;5.10;;;4.60;;
1879;SDS011;49285;49.002;8.390;2023-06-24T11:49:14;6.80;;;5.27;;
1879;SDS011;49285;49.002;8.390;2023-06-24T11:51:47;5.20;;;4.70;;
1879;SDS011;49285;49.002;8.390;2023-06-24T11:54:14;5.30;;;4.80;;
1879;SDS011;49285;49.002;8.390;2023-06-24T11:56:42;5.30;;;4.80;;
1879;SDS011;49285;49.002;8.390;2023-06-24T11:59:22;5.97;;;5.37;;
1879;SDS011;49285;49.002;8.390;2023-06-24T12:01:56;5.90;;;5.40;;
1879;SDS011;49285;49.002;8.390;2023-06-24T12:04:29;5.30;;;4.80;;
1879;SDS011;49285;49.002;8.390;2023-06-24T12:06:56;5.40;;;4.40;;
1879;SDS011;49285;49.002;8.390;2023-06-24T12:09:22;7.07;;;5.37;;
1879;SDS011;49285;49.002;8.390;2023-06-24T12:11:47;5.20;;;4.73;;
1879;SDS011;49285;49.002;8.390;2023-06-24T12:14:13;5.27;;;4.77;;
1879;SDS011;49285;49.002;8.390;2023-06-24T12:16:39;7.60;;;5.30;;
1879;SDS011;49285;49.002;8.390;2023-06-24T12:19:05;5.17;;;4.73;;
1879;SDS011;49285;49.002;8.390;2023-06-24T12:21:32;5.47;;;5.00;;
1879;SDS011;49285;49.002;8.390;2023-06-24T12:23:57;7.00;;;4.53;;
1879;SDS011;49285;49.002;8.390;2023-06-24T12:26:23;5.53;;;5.03;;
1879;SDS011;49285;49.002;8.390;2023-06-24T12:28:48;5.03;;;4.60;;
1879;SDS011;49285;49.002;8.390;2023-06-24T12:31:14;4.67;;;4.27;;
1879;SDS011;49285;49.002;8.390;2023-06-24T12:33:40;5.23;;;4.73;;
1879;SDS011;49285;49.002;8.390;2023-06-24T12:36:05;4.37;;;3.97;;
1879;SDS011;49285;49.002;8.390;2023-06-24T12:38:31;6.40;;;4.57;;
1879;SDS011;49285;49.002;8.390;2023-06-24T12:40:57;5.63;;;5.17;;
1879;SDS011;49285;49.002;8.390;2023-06-24T12:43:22;4.80;;;4.40;;
1879;SDS011;49285;49.002;8.390;2023-06-24T12:45:48;5.80;;;5.10;;
1879;SDS011;49285;49.002;8.390;2023-06-24T12:48:13;6.87;;;6.17;;
1879;SDS011;49285;49.002;8.390;2023-06-24T12:50:39;4.70;;;4.30;;
1879;SDS011;49285;49.002;8.390;2023-06-24T12:53:05;4.97;;;4.47;;
1879;SDS011;49285;49.002;8.390;2023-06-24T12:55:31;6.13;;;4.80;;
1879;SDS011;49285;49.002;8.390;2023-06-24T12:57:56;4.60;;;4.20;;
1879;SDS011;49285;49.002;8.390;2023-06-24T13:00:23;4.83;;;4.43;;
1879;SDS011;49285;49.002;8.390;2023-06-24T13:02:49;5.43;;;4.93;;
1879;SDS011;49285;49.002;8.390;2023-06-24T13:05:15;4.30;;;3.90;;
1879;SDS011;49285;49.002;8.390;2023-06-24T13:07:41;5.33;;;4.50;;
1879;SDS011;49285;49.002;8.390;2023-06-24T13:10:07;5.40;;;4.90;;
1879;SDS011;49285;49.002;8.390;2023-06-24T13:12:33;4.90;;;4.40;;
1879;SDS011;49285;49.002;8.390;2023-06-24T13:15:00;4.57;;;4.20;;
1879;SDS011;49285;49.002;8.390;2023-06-24T13:17:25;5.47;;;4.97;;
1879;SDS011;49285;49.002;8.390;2023-06-24T13:19:51;5.13;;;4.63;;
1879;SDS011;49285;49.002;8.390;2023-06-24T13:22:18;7.43;;;6.50;;
1879;SDS011;49285;49.002;8.390;2023-06-24T13:24:44;5.10;;;4.60;;
1879;SDS011;49285;49.002;8.390;2023-06-24T13:27:10;5.73;;;5.23;;
1879;SDS011;49285;49.002;8.390;2023-06-24T13:29:35;5.43;;;4.20;;
1879;SDS011;49285;49.002;8.390;2023-06-24T13:32:01;5.40;;;4.60;;
1879;SDS011;49285;49.002;8.390;2023-06-24T13:34:27;5.43;;;4.63;;
1879;SDS011;49285;49.002;8.390;2023-06-24T13:36:52;5.17;;;4.67;;
1879;SDS011;49285;49.002;8.390;2023-06-24T13:39:18;4.83;;;4.20;;
1879;SDS011;49285;49.002;8.390;2023-06-24T13:41:44;6.73;;;4.77;;
1879;SDS011;49285;49.002;8.390;2023-06-24T13:44:10;4.73;;;4.33;;
1879;SDS011;49285;49.002;8.390;2023-06-24T13:46:36;4.90;;;4.50;;
1879;SDS011;49285;49.002;8.390;2023-06-24T13:49:01;4.73;;;4.33;;
1879;SDS011;49285;49.002;8.390;2023-06-24T13:51:28;5.10;;;4.70;;
1879;SDS011;49285;49.002;8.390;2023-06-24T13:53:54;4.87;;;4.47;;
1879;SDS011;49285;49.002;8.390;2023-06-24T13:56:20;5.20;;;4.80;;
1879;SDS011;49285;49.002;8.390;2023-06-24T13:58:48;6.57;;;4.53;;
1879;SDS011;49285;49.002;8.390;2023-06-24T14:01:14;4.63;;;4.23;;
1879;SDS011;49285;49.002;8.390;2023-06-24T14:03:40;4.77;;;4.37;;
1879;SDS011;49285;49.002;8.390;2023-06-24T14:06:06;4.93;;;4.40;;
1879;SDS011;49285;49.002;8.390;2023-06-24T14:08:32;4.47;;;4.10;;
1879;SDS011;49285;49.002;8.390;2023-06-24T14:10:59;4.70;;;4.30;;
1879;SDS011;49285;49.002;8.390;2023-06-24T14:13:25;5.40;;;4.90;;
1879;SDS011;49285;49.002;8.390;2023-06-24T14:15:51;5.00;;;4.60;;
1879;SDS011;49285;49.002;8.390;2023-06-24T14:18:18;4.80;;;4.40;;
1879;SDS011;49285;49.002;8.390;2023-06-24T14:20:43;4.70;;;4.30;;
1879;SDS011;49285;49.002;8.390;2023-06-24T14:23:09;6.27;;;4.40;;
1879;SDS011;49285;49.002;8.390;2023-06-24T14:25:35;5.17;;;4.77;;
1879;SDS011;49285;49.002;8.390;2023-06-24T14:28:02;4.20;;;3.90;;
1879;SDS011;49285;49.002;8.390;2023-06-24T14:30:31;6.30;;;5.70;;
1879;SDS011;49285;49.002;8.390;2023-06-24T14:32:57;4.60;;;4.20;;
1879;SDS011;49285;49.002;8.390;2023-06-24T14:35:23;4.33;;;3.93;;
1879;SDS011;49285;49.002;8.390;2023-06-24T14:37:48;4.47;;;4.17;;
1879;SDS011;49285;49.002;8.390;2023-06-24T14:40:14;5.17;;;4.67;;
1879;SDS011;49285;49.002;8.390;2023-06-24T14:42:39;5.00;;;4.60;;
1879;SDS011;49285;49.002;8.390;2023-06-24T14:45:05;4.97;;;4.43;;
1879;SDS011;49285;49.002;8.390;2023-06-24T14:47:31;4.90;;;4.50;;
1879;SDS011;49285;49.002;8.390;2023-06-24T14:49:57;5.30;;;4.80;;
1879;SDS011;49285;49.002;8.390;2023-06-24T14:52:22;4.63;;;4.23;;
1879;SDS011;49285;49.002;8.390;2023-06-24T14:54:48;4.10;;;3.70;;
1879;SDS011;49285;49.002;8.390;2023-06-24T14:57:14;7.17;;;4.87;;
1879;SDS011;49285;49.002;8.390;2023-06-24T14:59:41;4.47;;;4.07;;
1879;SDS011;49285;49.002;8.390;2023-06-24T15:02:06;4.60;;;4.20;;
1879;SDS011;49285;49.002;8.390;2023-06-24T15:04:32;4.40;;;4.00;;
1879;SDS011;49285;49.002;8.390;2023-06-24T15:06:59;4.67;;;4.27;;
1879;SDS011;49285;49.002;8.390;2023-06-24T15:09:25;4.57;;;4.20;;
1879;SDS011;49285;49.002;8.390;2023-06-24T15:11:50;4.87;;;4.47;;
1879;SDS011;49285;49.002;8.390;2023-06-24T15:14:16;4.50;;;4.10;;
1879;SDS011;49285;49.002;8.390;2023-06-24T15:16:41;6.17;;;4.77;;
1879;SDS011;49285;49.002;8.390;2023-06-24T15:19:07;5.20;;;4.70;;
1879;SDS011;49285;49.002;8.390;2023-06-24T15:21:32;5.60;;;5.10;;
1879;SDS011;49285;49.002;8.390;2023-06-24T15:23:58;4.90;;;4.50;;